sensor_id;sensor_type;location;lat;lon;timestamp;pressure;altitude;pressure_sealevel;temperature;humidity
51526;BME280;37611;51.794;21.590;2022-08-24T00:01:55;100017.67;;;21.40;96.24
51526;BME280;37611;51.794;21.590;2022-08-24T00:05:58;100017.63;;;21.40;96.31
51526;BME280;37611;51.794;21.590;2022-08-24T00:10:00;100013.23;;;21.43;96.70
51526;BME280;37611;51.794;21.590;2022-08-24T00:14:04;100014.06;;;21.42;96.59
51526;BME280;37611;51.794;21.590;2022-08-24T00:18:07;100013.48;;;21.40;96.90
51526;BME280;37611;51.794;21.590;2022-08-24T00:22:09;100016.45;;;21.33;97.26
51526;BME280;37611;51.794;21.590;2022-08-24T00:26:24;100020.73;;;21.14;99.16
51526;BME280;37611;51.794;21.590;2022-08-24T00:30:30;100029.02;;;20.95;99.71
51526;BME280;37611;51.794;21.590;2022-08-24T00:34:33;100032.94;;;20.88;100.00
51526;BME280;37611;51.794;21.590;2022-08-24T00:38:37;100035.92;;;20.68;100.00
51526;BME280;37611;51.794;21.590;2022-08-24T00:42:39;100034.86;;;20.50;100.00
51526;BME280;37611;51.794;21.590;2022-08-24T00:46:59;100039.52;;;20.39;100.00
51526;BME280;37611;51.794;21.590;2022-08-24T00:51:25;100041.27;;;20.20;100.00
51526;BME280;37611;51.794;21.590;2022-08-24T00:55:36;100040.13;;;20.06;100.00
51526;BME280;37611;51.794;21.590;2022-08-24T00:59:53;100045.10;;;20.02;100.00
51526;BME280;37611;51.794;21.590;2022-08-24T01:03:59;100048.13;;;20.10;100.00
51526;BME280;37611;51.794;21.590;2022-08-24T01:08:07;100052.69;;;20.10;100.00
51526;BME280;37611;51.794;21.590;2022-08-24T01:12:15;100058.40;;;20.09;100.00
51526;BME280;37611;51.794;21.590;2022-08-24T01:16:18;100059.19;;;20.07;100.00
51526;BME280;37611;51.794;21.590;2022-08-24T01:20:42;100064.17;;;20.04;100.00
51526;BME280;37611;51.794;21.590;2022-08-24T01:24:46;100063.39;;;20.05;100.00
51526;BME280;37611;51.794;21.590;2022-08-24T01:28:51;100064.23;;;19.99;100.00
51526;BME280;37611;51.794;21.590;2022-08-24T01:33:00;100059.52;;;19.97;100.00
51526;BME280;37611;51.794;21.590;2022-08-24T01:37:04;100062.91;;;20.01;100.00
51526;BME280;37611;51.794;21.590;2022-08-24T01:41:09;100072.16;;;19.97;100.00
51526;BME280;37611;51.794;21.590;2022-08-24T01:45:10;100069.80;;;20.01;100.00
51526;BME280;37611;51.794;21.590;2022-08-24T01:49:13;100073.58;;;20.07;100.00
51526;BME280;37611;51.794;21.590;2022-08-24T01:53:15;100072.83;;;20.10;100.00
51526;BME280;37611;51.794;21.590;2022-08-24T01:57:17;100076.10;;;20.13;100.00
51526;BME280;37611;51.794;21.590;2022-08-24T02:01:19;100074.30;;;20.14;100.00
51526;BME280;37611;51.794;21.590;2022-08-24T02:05:23;100076.01;;;20.18;100.00
51526;BME280;37611;51.794;21.590;2022-08-24T02:09:26;100080.05;;;20.19;100.00
51526;BME280;37611;51.794;21.590;2022-08-24T02:13:29;100075.79;;;20.26;100.00
51526;BME280;37611;51.794;21.590;2022-08-24T02:17:31;100074.31;;;20.34;100.00
51526;BME280;37611;51.794;21.590;2022-08-24T02:21:35;100070.66;;;20.39;100.00
51526;BME280;37611;51.794;21.590;2022-08-24T02:25:39;100061.47;;;20.39;100.00
51526;BME280;37611;51.794;21.590;2022-08-24T02:29:43;100061.13;;;20.43;100.00
51526;BME280;37611;51.794;21.590;2022-08-24T02:33:45;100058.90;;;20.45;100.00
51526;BME280;37611;51.794;21.590;2022-08-24T02:37:47;100063.73;;;20.48;100.00
51526;BME280;37611;51.794;21.590;2022-08-24T02:41:53;100060.93;;;20.51;100.00
51526;BME280;37611;51.794;21.590;2022-08-24T02:45:55;100060.33;;;20.46;100.00
51526;BME280;37611;51.794;21.590;2022-08-24T02:50:00;100062.95;;;20.39;100.00
51526;BME280;37611;51.794;21.590;2022-08-24T02:54:04;100064.75;;;20.39;100.00
51526;BME280;37611;51.794;21.590;2022-08-24T02:58:10;100077.08;;;20.38;100.00
51526;BME280;37611;51.794;21.590;2022-08-24T03:02:16;100081.34;;;20.38;100.00
51526;BME280;37611;51.794;21.590;2022-08-24T03:06:21;100080.77;;;20.34;100.00
51526;BME280;37611;51.794;21.590;2022-08-24T03:10:26;100084.97;;;20.36;100.00
51526;BME280;37611;51.794;21.590;2022-08-24T03:14:28;100086.18;;;20.33;100.00
51526;BME280;37611;51.794;21.590;2022-08-24T03:18:32;100091.21;;;20.35;100.00
51526;BME280;37611;51.794;21.590;2022-08-24T03:22:34;100096.37;;;20.31;100.00
51526;BME280;37611;51.794;21.590;2022-08-24T03:26:36;100103.20;;;20.24;100.00
51526;BME280;37611;51.794;21.590;2022-08-24T03:30:42;100097.48;;;20.19;100.00
51526;BME280;37611;51.794;21.590;2022-08-24T03:34:44;100101.81;;;20.16;100.00
51526;BME280;37611;51.794;21.590;2022-08-24T03:38:49;100106.38;;;20.14;100.00
51526;BME280;37611;51.794;21.590;2022-08-24T03:42:52;100107.23;;;20.15;100.00
51526;BME280;37611;51.794;21.590;2022-08-24T03:46:53;100105.38;;;20.18;100.00
51526;BME280;37611;51.794;21.590;2022-08-24T03:50:59;100109.20;;;20.18;100.00
51526;BME280;37611;51.794;21.590;2022-08-24T03:55:06;100124.87;;;20.17;100.00
51526;BME280;37611;51.794;21.590;2022-08-24T03:59:09;100130.06;;;20.13;100.00
51526;BME280;37611;51.794;21.590;2022-08-24T04:03:14;100152.54;;;20.14;100.00
51526;BME280;37611;51.794;21.590;2022-08-24T04:07:23;100167.20;;;19.97;100.00
51526;BME280;37611;51.794;21.590;2022-08-24T04:11:27;100167.52;;;19.96;100.00
51526;BME280;37611;51.794;21.590;2022-08-24T04:15:31;100169.44;;;20.02;100.00
51526;BME280;37611;51.794;21.590;2022-08-24T04:19:33;100174.96;;;20.17;100.00
51526;BME280;37611;51.794;21.590;2022-08-24T04:23:38;100191.49;;;20.21;100.00
51526;BME280;37611;51.794;21.590;2022-08-24T04:27:42;100197.77;;;20.23;100.00
51526;BME280;37611;51.794;21.590;2022-08-24T04:31:56;100183.70;;;20.31;100.00
51526;BME280;37611;51.794;21.590;2022-08-24T04:35:59;100182.60;;;20.42;100.00
51526;BME280;37611;51.794;21.590;2022-08-24T04:40:04;100176.42;;;20.50;100.00
51526;BME280;37611;51.794;21.590;2022-08-24T04:44:06;100177.87;;;20.72;100.00
51526;BME280;37611;51.794;21.590;2022-08-24T04:48:13;100170.45;;;20.91;100.00
51526;BME280;37611;51.794;21.590;2022-08-24T04:52:19;100166.95;;;21.08;100.00
51526;BME280;37611;51.794;21.590;2022-08-24T04:56:22;100161.03;;;21.25;100.00
51526;BME280;37611;51.794;21.590;2022-08-24T05:00:30;100147.23;;;21.40;100.00
51526;BME280;37611;51.794;21.590;2022-08-24T05:04:34;100130.43;;;21.62;100.00
51526;BME280;37611;51.794;21.590;2022-08-24T05:08:37;100117.98;;;21.79;100.00
51526;BME280;37611;51.794;21.590;2022-08-24T05:12:40;100113.86;;;21.91;100.00
51526;BME280;37611;51.794;21.590;2022-08-24T05:16:45;100116.30;;;21.93;100.00
51526;BME280;37611;51.794;21.590;2022-08-24T05:20:53;100122.84;;;21.98;100.00
51526;BME280;37611;51.794;21.590;2022-08-24T05:24:54;100123.39;;;22.07;100.00
51526;BME280;37611;51.794;21.590;2022-08-24T05:28:59;100117.19;;;22.14;100.00
51526;BME280;37611;51.794;21.590;2022-08-24T05:33:01;100113.61;;;22.21;100.00
51526;BME280;37611;51.794;21.590;2022-08-24T05:37:03;100119.12;;;22.25;100.00
51526;BME280;37611;51.794;21.590;2022-08-24T05:41:09;100117.89;;;22.17;100.00
51526;BME280;37611;51.794;21.590;2022-08-24T05:45:11;100113.28;;;22.17;100.00
51526;BME280;37611;51.794;21.590;2022-08-24T05:49:15;100114.34;;;22.28;100.00
51526;BME280;37611;51.794;21.590;2022-08-24T05:53:17;100121.02;;;22.38;100.00
51526;BME280;37611;51.794;21.590;2022-08-24T05:57:20;100117.86;;;22.42;100.00
51526;BME280;37611;51.794;21.590;2022-08-24T06:01:25;100124.08;;;22.60;100.00
51526;BME280;37611;51.794;21.590;2022-08-24T06:05:27;100126.43;;;22.91;100.00
51526;BME280;37611;51.794;21.590;2022-08-24T06:09:32;100121.78;;;23.02;100.00
51526;BME280;37611;51.794;21.590;2022-08-24T06:13:34;100124.70;;;23.17;99.54
51526;BME280;37611;51.794;21.590;2022-08-24T06:17:35;100130.94;;;23.44;98.41
51526;BME280;37611;51.794;21.590;2022-08-24T06:21:42;100132.38;;;23.75;97.36
51526;BME280;37611;51.794;21.590;2022-08-24T06:25:44;100144.01;;;24.07;96.46
51526;BME280;37611;51.794;21.590;2022-08-24T06:30:08;100141.55;;;24.39;95.12
51526;BME280;37611;51.794;21.590;2022-08-24T06:34:16;100145.63;;;24.74;94.55
51526;BME280;37611;51.794;21.590;2022-08-24T06:38:24;100151.20;;;25.13;93.26
51526;BME280;37611;51.794;21.590;2022-08-24T06:42:32;100154.33;;;25.36;90.91
51526;BME280;37611;51.794;21.590;2022-08-24T06:46:35;100151.50;;;25.53;90.01
51526;BME280;37611;51.794;21.590;2022-08-24T06:50:38;100159.23;;;25.71;89.20
51526;BME280;37611;51.794;21.590;2022-08-24T06:54:40;100159.47;;;25.86;88.65
51526;BME280;37611;51.794;21.590;2022-08-24T06:58:42;100161.03;;;26.07;87.31
51526;BME280;37611;51.794;21.590;2022-08-24T07:02:44;100164.98;;;26.18;86.19
51526;BME280;37611;51.794;21.590;2022-08-24T07:06:46;100169.75;;;26.28;85.66
51526;BME280;37611;51.794;21.590;2022-08-24T07:10:49;100170.85;;;26.47;84.81
51526;BME280;37611;51.794;21.590;2022-08-24T07:14:51;100180.29;;;26.58;84.58
51526;BME280;37611;51.794;21.590;2022-08-24T07:18:52;100188.03;;;26.74;84.28
51526;BME280;37611;51.794;21.590;2022-08-24T07:22:55;100179.06;;;26.81;83.42
51526;BME280;37611;51.794;21.590;2022-08-24T07:26:56;100177.02;;;26.93;81.96
51526;BME280;37611;51.794;21.590;2022-08-24T07:30:58;100178.71;;;27.02;81.71
51526;BME280;37611;51.794;21.590;2022-08-24T07:35:00;100181.90;;;27.07;80.64
51526;BME280;37611;51.794;21.590;2022-08-24T07:39:03;100194.34;;;27.11;80.68
51526;BME280;37611;51.794;21.590;2022-08-24T07:43:05;100202.62;;;27.24;79.01
51526;BME280;37611;51.794;21.590;2022-08-24T07:47:06;100198.36;;;27.32;78.59
51526;BME280;37611;51.794;21.590;2022-08-24T07:51:14;100200.33;;;27.42;78.03
51526;BME280;37611;51.794;21.590;2022-08-24T07:55:16;100210.30;;;27.50;76.18
51526;BME280;37611;51.794;21.590;2022-08-24T07:59:18;100212.79;;;27.55;75.81
51526;BME280;37611;51.794;21.590;2022-08-24T08:03:20;100212.08;;;27.63;75.25
51526;BME280;37611;51.794;21.590;2022-08-24T08:07:24;100202.60;;;27.81;76.46
51526;BME280;37611;51.794;21.590;2022-08-24T08:11:26;100205.29;;;28.07;75.05
51526;BME280;37611;51.794;21.590;2022-08-24T08:15:28;100199.55;;;28.27;73.34
51526;BME280;37611;51.794;21.590;2022-08-24T08:19:30;100200.67;;;28.53;73.40
51526;BME280;37611;51.794;21.590;2022-08-24T08:23:32;100200.31;;;28.78;73.02
51526;BME280;37611;51.794;21.590;2022-08-24T08:27:53;100206.52;;;28.95;71.08
51526;BME280;37611;51.794;21.590;2022-08-24T08:31:55;100208.55;;;29.12;70.68
51526;BME280;37611;51.794;21.590;2022-08-24T08:36:12;100207.79;;;29.18;67.54
51526;BME280;37611;51.794;21.590;2022-08-24T08:45:14;100204.48;;;29.23;66.98
51526;BME280;37611;51.794;21.590;2022-08-24T08:57:57;100198.04;;;29.47;64.66
51526;BME280;37611;51.794;21.590;2022-08-24T09:11:08;100203.99;;;29.64;61.81
51526;BME280;37611;51.794;21.590;2022-08-24T09:16:21;100208.41;;;29.78;61.36
51526;BME280;37611;51.794;21.590;2022-08-24T09:33:21;100196.77;;;30.10;57.74
51526;BME280;37611;51.794;21.590;2022-08-24T09:37:32;100204.77;;;30.00;57.61
51526;BME280;37611;51.794;21.590;2022-08-24T09:55:07;100198.22;;;30.34;57.49
51526;BME280;37611;51.794;21.590;2022-08-24T10:16:19;100199.45;;;30.58;55.18
51526;BME280;37611;51.794;21.590;2022-08-24T10:43:21;100201.62;;;30.25;55.92
51526;BME280;37611;51.794;21.590;2022-08-24T10:47:58;100203.15;;;30.32;55.71
51526;BME280;37611;51.794;21.590;2022-08-24T10:56:42;100190.36;;;30.44;55.52
51526;BME280;37611;51.794;21.590;2022-08-24T11:00:48;100185.71;;;30.41;54.71
51526;BME280;37611;51.794;21.590;2022-08-24T11:05:05;100182.40;;;30.32;55.19
51526;BME280;37611;51.794;21.590;2022-08-24T11:09:11;100183.35;;;30.36;55.39
51526;BME280;37611;51.794;21.590;2022-08-24T11:13:25;100178.53;;;30.46;55.44
51526;BME280;37611;51.794;21.590;2022-08-24T11:17:29;100179.83;;;30.58;55.23
51526;BME280;37611;51.794;21.590;2022-08-24T11:26:02;100182.23;;;30.69;54.40
51526;BME280;37611;51.794;21.590;2022-08-24T11:30:14;100183.38;;;30.80;54.49
51526;BME280;37611;51.794;21.590;2022-08-24T11:38:33;100179.84;;;30.93;54.93
51526;BME280;37611;51.794;21.590;2022-08-24T11:47:21;100184.69;;;31.09;54.41
51526;BME280;37611;51.794;21.590;2022-08-24T12:00:16;100188.34;;;30.92;54.37
51526;BME280;37611;51.794;21.590;2022-08-24T12:08:48;100177.44;;;30.64;54.65
51526;BME280;37611;51.794;21.590;2022-08-24T12:13:32;100177.65;;;30.66;54.87
51526;BME280;37611;51.794;21.590;2022-08-24T12:21:47;100170.30;;;30.96;55.25
51526;BME280;37611;51.794;21.590;2022-08-24T12:25:56;100168.60;;;31.06;54.37
51526;BME280;37611;51.794;21.590;2022-08-24T12:30:11;100165.36;;;31.05;54.81
51526;BME280;37611;51.794;21.590;2022-08-24T12:38:35;100164.58;;;31.24;54.83
51526;BME280;37611;51.794;21.590;2022-08-24T12:46:51;100167.58;;;31.39;54.76
51526;BME280;37611;51.794;21.590;2022-08-24T12:59:49;100163.85;;;31.58;53.19
51526;BME280;37611;51.794;21.590;2022-08-24T13:08:21;100166.59;;;31.25;53.79
51526;BME280;37611;51.794;21.590;2022-08-24T13:17:07;100179.70;;;30.37;60.11
51526;BME280;37611;51.794;21.590;2022-08-24T13:21:15;100185.58;;;29.36;64.92
51526;BME280;37611;51.794;21.590;2022-08-24T13:25:24;100191.95;;;28.47;70.45
51526;BME280;37611;51.794;21.590;2022-08-24T13:29:28;100190.97;;;27.95;74.10
51526;BME280;37611;51.794;21.590;2022-08-24T13:33:48;100187.81;;;27.59;75.44
51526;BME280;37611;51.794;21.590;2022-08-24T13:51:52;100177.01;;;27.50;80.57
51526;BME280;37611;51.794;21.590;2022-08-24T14:00:50;100200.11;;;27.44;82.29
51526;BME280;37611;51.794;21.590;2022-08-24T14:13:40;100197.69;;;25.58;78.96
51526;BME280;37611;51.794;21.590;2022-08-24T14:18:28;100186.10;;;25.19;80.65
51526;BME280;37611;51.794;21.590;2022-08-24T14:31:31;100169.35;;;25.14;87.27
51526;BME280;37611;51.794;21.590;2022-08-24T14:35:57;100161.69;;;25.30;88.13
51526;BME280;37611;51.794;21.590;2022-08-24T14:52:50;100150.61;;;25.87;94.07
51526;BME280;37611;51.794;21.590;2022-08-24T15:09:33;100171.29;;;26.09;93.07
51526;BME280;37611;51.794;21.590;2022-08-24T15:13:39;100168.81;;;25.85;91.52
51526;BME280;37611;51.794;21.590;2022-08-24T15:22:21;100151.48;;;25.27;89.13
51526;BME280;37611;51.794;21.590;2022-08-24T15:31:05;100147.59;;;24.87;89.14
51526;BME280;37611;51.794;21.590;2022-08-24T15:35:26;100138.60;;;24.74;90.66
51526;BME280;37611;51.794;21.590;2022-08-24T15:39:29;100129.86;;;24.60;90.17
51526;BME280;37611;51.794;21.590;2022-08-24T15:43:35;100125.48;;;24.53;90.47
51526;BME280;37611;51.794;21.590;2022-08-24T15:47:43;100127.92;;;24.46;90.71
51526;BME280;37611;51.794;21.590;2022-08-24T15:51:50;100136.96;;;24.43;90.69
51526;BME280;37611;51.794;21.590;2022-08-24T15:55:54;100173.92;;;24.34;91.59
51526;BME280;37611;51.794;21.590;2022-08-24T16:00:08;100202.80;;;24.16;93.36
51526;BME280;37611;51.794;21.590;2022-08-24T16:04:13;100211.66;;;23.83;91.14
51526;BME280;37611;51.794;21.590;2022-08-24T16:08:19;100232.23;;;23.72;88.13
51526;BME280;37611;51.794;21.590;2022-08-24T16:12:22;100249.22;;;23.60;87.52
51526;BME280;37611;51.794;21.590;2022-08-24T16:16:39;100270.17;;;23.46;88.65
51526;BME280;37611;51.794;21.590;2022-08-24T16:20:42;100286.64;;;22.82;90.21
51526;BME280;37611;51.794;21.590;2022-08-24T16:24:44;100205.34;;;21.72;93.06
51526;BME280;37611;51.794;21.590;2022-08-24T16:28:46;100185.56;;;21.26;97.97
51526;BME280;37611;51.794;21.590;2022-08-24T16:32:55;100175.93;;;21.21;99.95
51526;BME280;37611;51.794;21.590;2022-08-24T16:36:57;100176.48;;;21.26;100.00
51526;BME280;37611;51.794;21.590;2022-08-24T16:41:06;100182.23;;;21.36;100.00
51526;BME280;37611;51.794;21.590;2022-08-24T16:45:10;100191.16;;;21.49;100.00
51526;BME280;37611;51.794;21.590;2022-08-24T16:49:15;100179.15;;;21.63;100.00
51526;BME280;37611;51.794;21.590;2022-08-24T16:53:16;100169.73;;;21.69;100.00
51526;BME280;37611;51.794;21.590;2022-08-24T16:57:24;100172.01;;;21.70;100.00
51526;BME280;37611;51.794;21.590;2022-08-24T17:01:30;100174.63;;;21.76;100.00
51526;BME280;37611;51.794;21.590;2022-08-24T17:05:32;100168.38;;;21.81;100.00
51526;BME280;37611;51.794;21.590;2022-08-24T17:09:39;100208.66;;;21.79;100.00
51526;BME280;37611;51.794;21.590;2022-08-24T17:13:41;100202.09;;;21.78;100.00
51526;BME280;37611;51.794;21.590;2022-08-24T17:17:57;100208.02;;;21.76;100.00
51526;BME280;37611;51.794;21.590;2022-08-24T17:22:02;100206.25;;;21.74;100.00
51526;BME280;37611;51.794;21.590;2022-08-24T17:26:09;100205.64;;;21.75;100.00
51526;BME280;37611;51.794;21.590;2022-08-24T17:30:12;100196.89;;;21.79;100.00
51526;BME280;37611;51.794;21.590;2022-08-24T17:34:19;100193.63;;;21.85;100.00
51526;BME280;37611;51.794;21.590;2022-08-24T17:38:22;100205.31;;;21.89;100.00
51526;BME280;37611;51.794;21.590;2022-08-24T17:42:23;100218.42;;;21.93;100.00
51526;BME280;37611;51.794;21.590;2022-08-24T17:46:26;100217.05;;;21.84;100.00
51526;BME280;37611;51.794;21.590;2022-08-24T17:50:28;100223.94;;;21.78;100.00
51526;BME280;37611;51.794;21.590;2022-08-24T17:54:30;100235.55;;;21.81;100.00
51526;BME280;37611;51.794;21.590;2022-08-24T17:58:32;100245.98;;;21.83;100.00
51526;BME280;37611;51.794;21.590;2022-08-24T18:02:54;100257.57;;;21.80;100.00
51526;BME280;37611;51.794;21.590;2022-08-24T18:06:58;100272.27;;;21.77;100.00
51526;BME280;37611;51.794;21.590;2022-08-24T18:11:01;100275.89;;;21.69;100.00
51526;BME280;37611;51.794;21.590;2022-08-24T18:15:04;100286.92;;;21.67;100.00
51526;BME280;37611;51.794;21.590;2022-08-24T18:19:06;100296.42;;;21.68;100.00
51526;BME280;37611;51.794;21.590;2022-08-24T18:23:09;100304.02;;;21.68;100.00
51526;BME280;37611;51.794;21.590;2022-08-24T18:27:31;100304.80;;;21.69;100.00
51526;BME280;37611;51.794;21.590;2022-08-24T18:31:34;100297.86;;;21.71;100.00
51526;BME280;37611;51.794;21.590;2022-08-24T18:35:36;100303.23;;;21.73;100.00
51526;BME280;37611;51.794;21.590;2022-08-24T18:39:37;100297.14;;;21.70;100.00
51526;BME280;37611;51.794;21.590;2022-08-24T18:43:39;100299.91;;;21.73;100.00
51526;BME280;37611;51.794;21.590;2022-08-24T18:47:41;100303.41;;;21.76;100.00
51526;BME280;37611;51.794;21.590;2022-08-24T18:51:43;100307.14;;;21.75;100.00
51526;BME280;37611;51.794;21.590;2022-08-24T18:55:48;100307.34;;;21.70;100.00
51526;BME280;37611;51.794;21.590;2022-08-24T18:59:50;100305.00;;;21.64;100.00
51526;BME280;37611;51.794;21.590;2022-08-24T19:03:52;100299.28;;;21.65;100.00
51526;BME280;37611;51.794;21.590;2022-08-24T19:07:55;100295.63;;;21.65;100.00
51526;BME280;37611;51.794;21.590;2022-08-24T19:11:57;100298.39;;;21.58;100.00
51526;BME280;37611;51.794;21.590;2022-08-24T19:15:59;100293.05;;;21.56;100.00
51526;BME280;37611;51.794;21.590;2022-08-24T19:20:02;100295.63;;;21.52;100.00
51526;BME280;37611;51.794;21.590;2022-08-24T19:24:05;100295.56;;;21.48;100.00
51526;BME280;37611;51.794;21.590;2022-08-24T19:28:08;100298.65;;;21.48;100.00
51526;BME280;37611;51.794;21.590;2022-08-24T19:32:11;100295.63;;;21.47;100.00
51526;BME280;37611;51.794;21.590;2022-08-24T19:36:19;100294.52;;;21.46;100.00
51526;BME280;37611;51.794;21.590;2022-08-24T19:40:22;100294.07;;;21.46;100.00
51526;BME280;37611;51.794;21.590;2022-08-24T19:44:25;100289.98;;;21.46;100.00
51526;BME280;37611;51.794;21.590;2022-08-24T19:48:46;100288.65;;;21.45;100.00
51526;BME280;37611;51.794;21.590;2022-08-24T19:52:48;100285.55;;;21.41;100.00
51526;BME280;37611;51.794;21.590;2022-08-24T19:56:51;100295.33;;;21.43;100.00
51526;BME280;37611;51.794;21.590;2022-08-24T20:01:02;100300.13;;;21.44;100.00
51526;BME280;37611;51.794;21.590;2022-08-24T20:05:04;100306.70;;;21.44;100.00
51526;BME280;37611;51.794;21.590;2022-08-24T20:09:07;100310.61;;;21.43;100.00
51526;BME280;37611;51.794;21.590;2022-08-24T20:13:09;100317.42;;;21.44;100.00
51526;BME280;37611;51.794;21.590;2022-08-24T20:17:10;100321.36;;;21.40;100.00
51526;BME280;37611;51.794;21.590;2022-08-24T20:21:13;100318.48;;;21.35;100.00
51526;BME280;37611;51.794;21.590;2022-08-24T20:25:16;100319.90;;;21.37;100.00
51526;BME280;37611;51.794;21.590;2022-08-24T20:29:19;100314.56;;;21.36;100.00
51526;BME280;37611;51.794;21.590;2022-08-24T20:33:21;100318.66;;;21.29;100.00
51526;BME280;37611;51.794;21.590;2022-08-24T20:37:26;100326.16;;;21.14;100.00
51526;BME280;37611;51.794;21.590;2022-08-24T20:41:29;100330.91;;;21.03;100.00
51526;BME280;37611;51.794;21.590;2022-08-24T20:45:31;100331.52;;;21.02;100.00
51526;BME280;37611;51.794;21.590;2022-08-24T20:49:33;100332.38;;;21.06;100.00
51526;BME280;37611;51.794;21.590;2022-08-24T20:53:37;100337.95;;;21.05;100.00
51526;BME280;37611;51.794;21.590;2022-08-24T20:57:44;100340.58;;;20.96;100.00
51526;BME280;37611;51.794;21.590;2022-08-24T21:01:47;100339.50;;;20.90;100.00
51526;BME280;37611;51.794;21.590;2022-08-24T21:05:49;100341.98;;;20.89;100.00
51526;BME280;37611;51.794;21.590;2022-08-24T21:09:52;100346.89;;;20.82;100.00
51526;BME280;37611;51.794;21.590;2022-08-24T21:13:54;100340.08;;;20.79;100.00
51526;BME280;37611;51.794;21.590;2022-08-24T21:17:56;100343.40;;;20.78;100.00
51526;BME280;37611;51.794;21.590;2022-08-24T21:21:57;100354.67;;;20.73;100.00
51526;BME280;37611;51.794;21.590;2022-08-24T21:26:01;100349.58;;;20.71;100.00
51526;BME280;37611;51.794;21.590;2022-08-24T21:30:08;100353.24;;;20.70;100.00
51526;BME280;37611;51.794;21.590;2022-08-24T21:34:10;100352.76;;;20.67;100.00
51526;BME280;37611;51.794;21.590;2022-08-24T21:38:51;100346.98;;;20.59;100.00
51526;BME280;37611;51.794;21.590;2022-08-24T21:42:53;100339.76;;;20.60;100.00
51526;BME280;37611;51.794;21.590;2022-08-24T21:46:55;100338.28;;;20.62;100.00
51526;BME280;37611;51.794;21.590;2022-08-24T21:50:57;100330.48;;;20.63;100.00
51526;BME280;37611;51.794;21.590;2022-08-24T21:54:59;100333.51;;;20.62;100.00
51526;BME280;37611;51.794;21.590;2022-08-24T21:59:01;100327.67;;;20.63;100.00
51526;BME280;37611;51.794;21.590;2022-08-24T22:03:04;100325.30;;;20.63;100.00
51526;BME280;37611;51.794;21.590;2022-08-24T22:07:05;100320.33;;;20.63;100.00
51526;BME280;37611;51.794;21.590;2022-08-24T22:11:09;100323.08;;;20.63;100.00
51526;BME280;37611;51.794;21.590;2022-08-24T22:15:13;100319.88;;;20.62;100.00
51526;BME280;37611;51.794;21.590;2022-08-24T22:19:16;100316.81;;;20.60;100.00
51526;BME280;37611;51.794;21.590;2022-08-24T22:23:18;100313.90;;;20.59;100.00
51526;BME280;37611;51.794;21.590;2022-08-24T22:27:20;100313.04;;;20.58;100.00
51526;BME280;37611;51.794;21.590;2022-08-24T22:31:25;100308.95;;;20.56;100.00
51526;BME280;37611;51.794;21.590;2022-08-24T22:35:27;100307.74;;;20.54;100.00
51526;BME280;37611;51.794;21.590;2022-08-24T22:39:29;100291.04;;;20.47;100.00
51526;BME280;37611;51.794;21.590;2022-08-24T22:43:31;100293.46;;;20.47;100.00
51526;BME280;37611;51.794;21.590;2022-08-24T22:47:52;100296.20;;;20.46;100.00
51526;BME280;37611;51.794;21.590;2022-08-24T22:51:55;100296.29;;;20.44;100.00
51526;BME280;37611;51.794;21.590;2022-08-24T22:55:57;100294.83;;;20.42;100.00
51526;BME280;37611;51.794;21.590;2022-08-24T23:00:00;100295.03;;;20.40;100.00
51526;BME280;37611;51.794;21.590;2022-08-24T23:04:06;100293.63;;;20.36;100.00
51526;BME280;37611;51.794;21.590;2022-08-24T23:08:09;100288.88;;;20.36;100.00
51526;BME280;37611;51.794;21.590;2022-08-24T23:12:14;100280.97;;;20.34;100.00
51526;BME280;37611;51.794;21.590;2022-08-24T23:16:16;100274.24;;;20.30;100.00
51526;BME280;37611;51.794;21.590;2022-08-24T23:20:18;100275.79;;;20.31;100.00
51526;BME280;37611;51.794;21.590;2022-08-24T23:24:21;100272.19;;;20.32;100.00
51526;BME280;37611;51.794;21.590;2022-08-24T23:28:22;100271.98;;;20.32;100.00
51526;BME280;37611;51.794;21.590;2022-08-24T23:32:24;100269.20;;;20.29;100.00
51526;BME280;37611;51.794;21.590;2022-08-24T23:36:27;100266.00;;;20.26;100.00
51526;BME280;37611;51.794;21.590;2022-08-24T23:40:28;100267.43;;;20.25;100.00
51526;BME280;37611;51.794;21.590;2022-08-24T23:44:30;100261.67;;;20.19;100.00
51526;BME280;37611;51.794;21.590;2022-08-24T23:48:32;100260.56;;;20.22;100.00
51526;BME280;37611;51.794;21.590;2022-08-24T23:52:34;100261.25;;;20.22;100.00
51526;BME280;37611;51.794;21.590;2022-08-24T23:56:41;100261.61;;;20.24;100.00
